KCVX

Charlevoix Municipal Airport

Charlevoix, Michigan, USA
METAR KCVX 170515Z AUTO 32011G18KT 10SM BKN032 BKN038 OVC048 06/01 A2995 RMK AO2 T00560011
Observed Flight Rules
Oct-17 @ 05:15 UTC (30 minutes ago) Visual Flight Rules
Wind Visibility Clouds
320° at 11 knots
 Gusting to 18 knots
10 miles
  • Broken at 3,200' AGL
  • Broken at 3,800' AGL
  • Overcast at 4,800' AGL
Temperatures Readings
Current 6°C / 43°F
Dewpoint 1°C / 34°F
Humidity 71%
Altimeter 29.95" Hg
Pressure 1014 hPa
Elevation 204
METAR KCVX 170515Z AUTO 32011G18KT 10SM BKN032 BKN038 OVC048 06/01 A2995 RMK AO2 T00560011
Observed Flight Rules
Oct-17 @ 05:15 UTC
(30 minutes ago)
VFR
Wind Visibility
320° at 11 knots
 Gusting to 18 knots
10 miles
Clouds
  • Broken at 3,200' AGL
  • Broken at 3,800' AGL
  • Overcast at 4,800' AGL
Temperature Dewpoint
6°C / 43°F 1°C / 34°F
Humidity Altimeter Pressure
71% 29.95" Hg 1014 hPa